Nathaniel B. Palmer — WBP3210 — position and weather

sailwx.info

Track history (hours):
 
Tides and Currents Weather Stations Pressure Air Temp Water Temp Dewpoint Dewpoint Depression Visibility Wind Speed Wind Dir Waves Ship Positions

Oceanographic research ship Nathaniel B. Palmer (USA)

Contact: Ethan Norris, ethan.norris.contractor@usap.gov

Detailed information on ship capabilities available from University of Delaware's Ocean Information Center and ARCUS's ALIAS (Arctic Logistics Information and Support) project.

Owner: OFFSHORE SERVICE VESSELS, Cut Off, LA. More information available from US FCC via Universal Licensing System and Coast Guard Vessel Documentation Center.

Last reported at 2018-Feb-25 07:00 UTC. Time now 2018-Feb-25 08:28 UTC.
Position S 58°12' E 154°54'.

Type: Other ship. MMSI: 366610000.

Wind from 280 at 26 knots

Barometer 989.7 mb
Air temperature 4.1 ° C
Water temperature 3.9 ° C

Date/timePositionNaut miles runAvg speedWind from/ knotsBaromVisibWave heightAir tempDewpointWater temp
2018-Feb-25 07:00S 58°12' E 154°54'1212.4 280 / 26989.7 4.1 3.9
2018-Feb-25 06:00S 58°24' E 155°00'9 8.7 290 / 27989.0 4.0 3.8
2018-Feb-25 05:00S 58°30' E 155°12'7 6.8 300 / 26989.1 3.5 3.8
2018-Feb-25 04:00S 58°36' E 155°18'9 8.7 300 / 25989.3 3.4 3.8
2018-Feb-25 03:00S 58°42' E 155°30'1212.4 290 / 23989.5 3.0 3.7
2018-Feb-25 02:00S 58°54' E 155°36'9 8.6 280 / 23989.4 2.7 2.8
2018-Feb-25 01:00S 59°00' E 155°48'9 8.6 270 / 21989.3 2.3 2.6
2018-Feb-25 00:00S 59°06' E 156°00'1212.4 250 / 22988.9 2.2 2.8
2018-Feb-24 23:00S 59°18' E 156°06'9 8.6 250 / 21988.3 2.4 2.8
2018-Feb-24 22:00S 59°24' E 156°18'7 6.7 240 / 17987.5 2.3 2.5
2018-Feb-24 21:00S 59°30' E 156°24'9 8.5 220 / 16986.8 2.3 2.5
2018-Feb-24 20:00S 59°36' E 156°36'1212.4 210 / 14986.0 1.5 2.3
2018-Feb-24 19:00S 59°48' E 156°42'9 8.5 200 / 17985.1 1.3 2.5
2018-Feb-24 18:00S 59°54' E 156°54'8 8.5 200 / 18984.0 1.1 2.5
2018-Feb-24 17:00S 60°00' E 157°06'7 6.7 200 / 20982.9 1.3 2.3
2018-Feb-24 16:00S 60°06' E 157°12'1313.4 190 / 24981.8 1.4 2.2
2018-Feb-24 15:00S 60°18' E 157°24'8 8.4 190 / 21981.0 1.5 2.3
2018-Feb-24 14:00S 60°24' E 157°36'7 6.7 190 / 11980.6 2.4 2.4
2018-Feb-24 13:00S 60°30' E 157°42'8 8.4 070 / 3980.7 2.8 2.3
2018-Feb-24 12:00S 60°36' E 157°54'1313.4 060 / 8981.4 2.6 2.2
2018-Feb-24 11:00S 60°48' E 158°06'7 6.7 050 / 9982.2 1.9 2.2
2018-Feb-24 10:00S 60°54' E 158°12'8 8.4 050 / 11983.1 1.5 2.2
2018-Feb-24 09:00S 61°00' E 158°24'8 8.4 050 / 11984.0 1.0 2.1
2018-Feb-24 08:00S 61°06' E 158°36'1212.3 030 / 9984.9 0.9 2.1
2018-Feb-24 07:00S 61°18' E 158°42'8 8.3 020 / 10985.7 0.8 2.0
2018-Feb-24 06:00S 61°24' E 158°54'8 8.3 020 / 12986.6 0.9 2.0
2018-Feb-24 05:00S 61°30' E 159°06'1212.3 360 / 13987.5 0.9 2.0
2018-Feb-24 04:00S 61°42' E 159°12'8 8.3 350 / 12988.4 0.8 1.9
2018-Feb-24 03:00S 61°48' E 159°24'8 8.2 340 / 15989.0 1.4 1.8
2018-Feb-24 02:00S 61°54' E 159°36'7 6.6 330 / 15989.5 1.9 1.7
2018-Feb-24 01:00S 62°00' E 159°42'1313.2
2018-Feb-24 00:00S 62°12' E 159°54'8 8.2
2018-Feb-23 23:00S 62°18' E 160°06'8 8.2 300 / 19990.2 1.7 1.6
2018-Feb-23 22:00S 62°24' E 160°18'7 6.6 300 / 19990.0 1.7 1.6
2018-Feb-23 21:00S 62°30' E 160°24'1313.2 290 / 20989.5 1.7 1.7
2018-Feb-23 20:00S 62°42' E 160°36'8 8.1 290 / 20989.1 1.7 1.6
2018-Feb-23 19:00S 62°48' E 160°48'7 6.6 290 / 19988.7 1.6 1.6
2018-Feb-23 18:00S 62°54' E 160°54'8 8.1 290 / 19988.4 1.4 1.6
2018-Feb-23 17:00S 63°00' E 161°06'8 8.1 300 / 19988.2 1.2 1.6
2018-Feb-23 16:00S 63°06' E 161°18'1313.2 340 / 16988.4 0.2 1.3
2018-Feb-23 15:00S 63°18' E 161°30'7 6.6 340 / 9988.7 -0.3 1.0
2018-Feb-23 14:00S 63°24' E 161°36'8 8.0 280 / 13988.7 -0.2 0.9
2018-Feb-23 13:00S 63°30' E 161°48'8 8.0 270 / 13988.4 -0.5 0.8
2018-Feb-23 12:00S 63°36' E 162°00'1313.1 290 / 16987.9 -1.0 0.9
2018-Feb-23 11:00S 63°48' E 162°12'7 6.6 020 / 17987.7 -1.2 0.9
2018-Feb-23 10:00S 63°54' E 162°18'8 8.0 010 / 15987.8 -0.8 0.7
2018-Feb-23 09:00S 64°00' E 162°30'8 8.0 020 / 13987.7 -0.7 0.6
2018-Feb-23 08:00S 64°06' E 162°42'1313.1 020 / 10987.7 -0.9 0.6
2018-Feb-23 07:00S 64°18' E 162°54'8 7.9 050 / 7987.7 -1.3 0.6
2018-Feb-23 06:00S 64°24' E 163°06'8 7.9 070 / 5987.5 -1.5 0.6
2018-Feb-23 05:00S 64°30' E 163°18'8 7.9 110 / 2987.3 -1.3 0.5
2018-Feb-23 04:00S 64°36' E 163°30'1313.0 120 / 3987.2 -1.0 0.6
2018-Feb-23 03:00S 64°48' E 163°42'7 6.5 160 / 3986.8 -0.8 0.5
2018-Feb-23 02:00S 64°54' E 163°48'8 7.9 160 / 5986.4 -1.3 0.3
2018-Feb-23 01:00S 65°00' E 164°00'8 7.9 180 / 6986.2 -1.9 0.3
2018-Feb-23 00:00S 65°06' E 164°12'1313.0 210 / 4985.8 -1.8 0.3
2018-Feb-22 23:00S 65°18' E 164°24'8 7.8 120 / 8985.5 -2.0 0.3
2018-Feb-22 22:00S 65°24' E 164°36'8 7.8 110 / 9985.1 -1.9 0.3
2018-Feb-22 21:00S 65°30' E 164°48'8 7.8 140 / 11984.6 -1.8 0.3
2018-Feb-22 20:00S 65°36' E 165°00'1313.0 140 / 12984.2 -2.7 0.3
2018-Feb-22 19:00S 65°48' E 165°12'8 7.8 130 / 15983.6 -2.3 0.3
2018-Feb-22 18:00S 65°54' E 165°24'6 6.5 150 / 13983.2 -1.8 0.3
2018-Feb-22 17:00S 66°00' E 165°30'37 9.3 140 / 12983.0 -2.5 0.3
2018-Feb-22 13:00S 66°30' E 166°24'8 7.7 140 / 13982.5 -3.0 0.2
2018-Feb-22 12:00S 66°36' E 166°36'1312.9 110 / 13982.6 -3.5 -0.0
2018-Feb-22 11:00S 66°48' E 166°48'8 7.6 120 / 14982.4 -3.1 -0.0
2018-Feb-22 10:00S 66°54' E 167°00'8 7.6 120 / 13982.3 -3.3 -0.0
2018-Feb-22 09:00S 67°00' E 167°12'8 7.6 130 / 14982.2 -3.2 -0.0
2018-Feb-22 08:00S 67°06' E 167°24'8 7.6 120 / 14982.1 -3.3 -0.0
2018-Feb-22 07:00S 67°12' E 167°36'9 9.2 110 / 13982.0 -2.4 -0.3
2018-Feb-22 06:00S 67°18' E 167°54'1212.0 110 / 13981.7 -2.8 -0.2
2018-Feb-22 05:00S 67°30' E 167°54'8 7.5 110 / 12981.9 -2.8 -0.3
2018-Feb-22 04:00S 67°36' E 168°06'8 7.5 110 / 13982.1 -2.8 -0.3
2018-Feb-22 03:00S 67°42' E 168°18'8 7.5 120 / 12982.3 -2.7 -0.4
2018-Feb-22 02:00S 67°48' E 168°30'1413.8 120 / 11982.6 -2.8 -0.5
2018-Feb-22 01:00S 68°00' E 168°48'7 7.5 120 / 11982.9 -2.9 -0.6
2018-Feb-22 00:00S 68°06' E 169°00'7 7.5 120 / 11983.0 -3.1 -0.7
2018-Feb-21 23:00S 68°12' E 169°12'1312.8 120 / 11983.0 -3.1 -0.7
2018-Feb-21 22:00S 68°24' E 169°24'7 7.4 120 / 10983.1 -3.2 -0.6
2018-Feb-21 21:00S 68°30' E 169°36'9 8.9 130 / 11983.2 -3.3 -0.6
2018-Feb-21 20:00S 68°36' E 169°54'7 7.4 120 / 10983.3 -3.3 -0.8
2018-Feb-21 19:00S 68°42' E 170°06'1312.8 120 / 9983.3 -3.5 -0.8
2018-Feb-21 18:00S 68°54' E 170°18'7 7.4 130 / 10983.4 -3.8 -0.9
2018-Feb-21 17:00S 69°00' E 170°30'7 7.4 130 / 11983.5 -3.9 -0.8
2018-Feb-21 16:00S 69°06' E 170°42'9 8.8 130 / 13983.7 -3.9 -0.7
2018-Feb-21 15:00S 69°12' E 171°00'1312.7 140 / 14984.1 -3.8 -0.6
2018-Feb-21 14:00S 69°24' E 171°12'7 7.3 140 / 13984.4 -3.4 -0.7
2018-Feb-21 13:00S 69°30' E 171°24'9 8.7 150 / 15984.8 -2.9 -0.9
2018-Feb-21 12:00S 69°36' E 171°42'7 7.3 150 / 17985.0 -3.6 -0.9
2018-Feb-21 11:00S 69°42' E 171°54'1312.7 160 / 19985.2 -2.6 -0.9
2018-Feb-21 10:00S 69°54' E 172°06'9 8.6 170 / 20985.3 -2.5 -0.9
2018-Feb-21 09:00S 70°00' E 172°24'7 7.3 170 / 22985.3 -2.2 -0.9
2018-Feb-21 08:00S 70°06' E 172°36'7 7.3 170 / 23985.2 -2.1 -0.9
2018-Feb-21 07:00S 70°12' E 172°48'1313.4 170 / 24985.2 -2.1 -0.9
2018-Feb-21 06:00S 70°24' E 173°06'7 7.2 180 / 26985.1 -3.2 -0.9
2018-Feb-21 05:00S 70°30' E 173°18'7 7.2 180 / 28985.1 -3.6 -0.9
2018-Feb-21 04:00S 70°36' E 173°30'8 8.5 170 / 25984.9 -3.9 -0.9
2018-Feb-21 03:00S 70°42' E 173°48'1312.6 190 / 26985.0 -4.5 -0.9
2018-Feb-21 02:00S 70°54' E 174°00'7 7.2 190 / 28985.1 -3.5 -0.9
2018-Feb-21 01:00S 71°00' E 174°12'6 6.3 180 / 30985.1 -4.0 -1.0
2018-Feb-21 00:00S 71°06' E 174°06'6 6.0 170 / 32985.0 -4.6 -1.0
2018-Feb-20 23:00S 71°12' E 174°06'275 5.3 170 / 30985.4 -5.2 -0.9
2018-Feb-18 19:00S 74°48' E 164°24'0 0.0 260 / 22997.6 -9.3 -1.5
2018-Feb-18 18:00S 74°48' E 164°24'6 6.2 250 / 24997.7 -9.2 -1.5
2018-Feb-18 17:00S 74°42' E 164°30'2 1.6 260 / 21997.6 -8.4 -1.5
2018-Feb-18 16:00S 74°42' E 164°36'2 1.6 240 / 19997.7 -7.7 -1.5
2018-Feb-18 15:00S 74°42' E 164°30'2 1.6 240 / 17998.0 -7.4 -1.5
2018-Feb-18 14:00S 74°42' E 164°24'6 6.2 240 / 16998.2 -7.3 -1.4
2018-Feb-18 13:00S 74°48' E 164°30'6 6.3 240 / 17998.2 -7.4 -1.4
2018-Feb-18 12:00S 74°48' E 164°54'6 6.2 240 / 15998.4 -6.9 -1.5
2018-Feb-18 11:00S 74°42' E 165°00'3 3.2 250 / 11998.7 -6.9 -1.5
2018-Feb-18 10:00S 74°42' E 164°48'3 3.2 250 / 13998.6 -6.9 -1.5
2018-Feb-18 09:00S 74°42' E 164°36'5 4.7 250 / 17998.7 -6.9 -1.4
2018-Feb-18 08:00S 74°42' E 164°18'0 0.0 240 / 18998.8 -6.6 -1.2
2018-Feb-18 07:00S 74°42' E 164°18'0 0.0 250 / 20998.7 -6.8 -1.2
2018-Feb-18 06:00S 74°42' E 164°18'2 1.6 260 / 23998.7 -7.0 -1.2
2018-Feb-18 05:00S 74°42' E 164°24'2 1.6 250 / 25998.6 -7.2 -1.2
2018-Feb-18 04:00S 74°42' E 164°18'0 0.0 250 / 28998.3 -7.7 -1.2
2018-Feb-18 03:00S 74°42' E 164°18'2 1.6 250 / 30998.3 -7.7 -1.1
2018-Feb-18 02:00S 74°42' E 164°24'8 7.7 240 / 23997.8 -7.5 -1.2
2018-Feb-18 01:00S 74°36' E 164°42'0 0.0 220 / 16997.6 -7.2 -1.4
2018-Feb-18 00:00S 74°36' E 164°42'0 0.0 220 / 14997.4 -7.3 -1.4
2018-Feb-17 23:00S 74°36' E 164°42'0 0.0 210 / 10997.1 -7.3 -1.4
2018-Feb-17 22:00S 74°36' E 164°42'0 0.0 270 / 4996.8 -6.7 -1.4
2018-Feb-17 21:00S 74°36' E 164°42'0 0.0 320 / 4996.3 -7.4 -1.4
2018-Feb-17 20:00S 74°36' E 164°42'6 6.0 310 / 9995.6 -7.8 -1.5
2018-Feb-17 19:00S 74°42' E 164°42'2 1.6 250 / 17994.9 -7.9 -1.4
2018-Feb-17 18:00S 74°42' E 164°48'2 1.6 240 / 22994.5 -7.8 -1.4
2018-Feb-17 17:00S 74°42' E 164°54'5 4.7 240 / 16994.2 -6.7 -1.5
2018-Feb-17 16:00S 74°42' E 164°36'5 4.7 240 / 13993.6 -6.3 -1.4
2018-Feb-17 15:00S 74°42' E 164°18'6 6.0 260 / 14992.9 -6.2 -1.2
2018-Feb-17 14:00S 74°48' E 164°18'17 0.7 260 / 34992.2 -8.2 -1.2
2018-Feb-16 15:00S 74°42' E 165°18'3 3.2 200 / 5985.5 -6.1 -1.8
2018-Feb-16 14:00S 74°42' E 165°30'3 3.2 985.7 -6.3 -1.7
2018-Feb-16 13:00S 74°42' E 165°18'7 6.8 330 / 6985.8 -6.3 -1.6
2018-Feb-16 12:00S 74°48' E 165°06'3 3.1 350 / 11985.9 -6.3 -1.8
2018-Feb-16 11:00S 74°48' E 164°54'2 1.6 010 / 10985.8 -5.7 -1.4
2018-Feb-16 10:00S 74°48' E 164°48'0 0.0 010 / 15985.6 -5.5 -1.3
2018-Feb-16 09:00S 74°48' E 164°48'6 6.2 020 / 10985.8 -4.7 -1.3
2018-Feb-16 08:00S 74°42' E 164°42'2 1.6 020 / 14985.9 -6.2 -1.2
2018-Feb-16 07:00S 74°42' E 164°36'0 0.0 030 / 16985.7 -5.9 -1.2
2018-Feb-16 06:00S 74°42' E 164°36'5 4.7 030 / 14985.7 -5.6 -1.2
2018-Feb-16 05:00S 74°42' E 164°54'2 1.6 010 / 10985.8 -5.5 -1.4
2018-Feb-16 04:00S 74°42' E 165°00'5 4.7 020 / 13985.9 -5.3 -1.4
2018-Feb-16 03:00S 74°42' E 164°42'7 6.8 020 / 17986.1 -5.8 -1.3
2018-Feb-16 02:00S 74°48' E 164°30'0 0.0 030 / 13986.2 -4.8 -1.2
2018-Feb-16 01:00S 74°48' E 164°30'0 0.0 350 / 9986.5 -4.5 -1.3
2018-Feb-16 00:00S 74°48' E 164°30'3 3.1 270 / 26986.4 -4.1 -1.3
2018-Feb-15 23:00S 74°48' E 164°18'6 6.2 280 / 28986.0 -4.3 -1.4
2018-Feb-15 22:00S 74°54' E 164°12'6 6.0 270 / 43985.4 -7.4 -1.8
2018-Feb-15 21:00S 75°00' E 164°12'3 3.1 270 / 37987.5 -8.6 -1.8
2018-Feb-15 20:00S 75°00' E 164°24'3 3.1 270 / 41987.0 -8.5 -1.8
2018-Feb-15 19:00S 75°00' E 164°36'2 1.6 260 / 41987.0 -8.8 -1.8
2018-Feb-15 18:00S 75°00' E 164°42'5 4.7 260 / 41986.5 -8.9 -1.8
2018-Feb-15 17:00S 75°00' E 164°24'2 1.6 260 / 47986.0 -9.0 -1.8
2018-Feb-15 16:00S 75°00' E 164°30'3 3.1 250 / 44986.6 -9.0 -1.8
2018-Feb-15 15:00S 75°00' E 164°18'5 4.7 270 / 41986.2 -8.9 -1.8
2018-Feb-15 14:00S 75°00' E 164°00'2 1.6 270 / 34986.2 -8.7 -1.8
2018-Feb-15 13:00S 75°00' E 163°54'2 1.6 260 / 29986.0 -7.7 -1.8
2018-Feb-15 12:00S 75°00' E 164°00'2 1.6 260 / 32985.0 -6.8 -1.8
2018-Feb-15 11:00S 75°00' E 164°06'2 1.6 270 / 32983.6 -5.7 -1.8
2018-Feb-15 10:00S 75°00' E 164°12'3 3.1 270 / 25983.4 -4.5 -1.8
2018-Feb-15 09:00S 75°00' E 164°24'2 1.6 260 / 22982.7 -3.5 -1.8
2018-Feb-15 08:00S 75°00' E 164°30'6 6.2 250 / 28981.8 -2.6 -1.8
2018-Feb-15 07:00S 74°54' E 164°24'   260 / 31981.2 -2.1 -1.5
Track history (hours):
 
Tides and Currents Weather Stations Pressure Air Temp Water Temp Dewpoint Dewpoint Depression Visibility Wind Speed Wind Dir Waves Ship Positions

Oceanographic research ship Nathaniel B. Palmer (USA)

Contact: Ethan Norris, ethan.norris.contractor@usap.gov

Detailed information on ship capabilities available from University of Delaware's Ocean Information Center and ARCUS's ALIAS (Arctic Logistics Information and Support) project.

Owner: OFFSHORE SERVICE VESSELS, Cut Off, LA. More information available from US FCC via Universal Licensing System and Coast Guard Vessel Documentation Center.

Last reported at 2018-Feb-25 07:00 UTC. Time now 2018-Feb-25 08:28 UTC.
Position S 58°12' E 154°54'.

Type: Other ship. MMSI: 366610000.

Wind from 280 at 26 knots

Barometer 989.7 mb
Air temperature 4.1 ° C
Water temperature 3.9 ° C

Date/timePositionNaut miles runAvg speedWind from/ knotsBaromVisibWave heightAir tempDewpointWater temp
2018-Feb-25 07:00S 58°12' E 154°54'1212.4 280 / 26989.7 4.1 3.9
2018-Feb-25 06:00S 58°24' E 155°00'9 8.7 290 / 27989.0 4.0 3.8
2018-Feb-25 05:00S 58°30' E 155°12'7 6.8 300 / 26989.1 3.5 3.8
2018-Feb-25 04:00S 58°36' E 155°18'9 8.7 300 / 25989.3 3.4 3.8
2018-Feb-25 03:00S 58°42' E 155°30'1212.4 290 / 23989.5 3.0 3.7
2018-Feb-25 02:00S 58°54' E 155°36'9 8.6 280 / 23989.4 2.7 2.8
2018-Feb-25 01:00S 59°00' E 155°48'9 8.6 270 / 21989.3 2.3 2.6
2018-Feb-25 00:00S 59°06' E 156°00'1212.4 250 / 22988.9 2.2 2.8
2018-Feb-24 23:00S 59°18' E 156°06'9 8.6 250 / 21988.3 2.4 2.8
2018-Feb-24 22:00S 59°24' E 156°18'7 6.7 240 / 17987.5 2.3 2.5
2018-Feb-24 21:00S 59°30' E 156°24'9 8.5 220 / 16986.8 2.3 2.5
2018-Feb-24 20:00S 59°36' E 156°36'1212.4 210 / 14986.0 1.5 2.3
2018-Feb-24 19:00S 59°48' E 156°42'9 8.5 200 / 17985.1 1.3 2.5
2018-Feb-24 18:00S 59°54' E 156°54'8 8.5 200 / 18984.0 1.1 2.5
2018-Feb-24 17:00S 60°00' E 157°06'7 6.7 200 / 20982.9 1.3 2.3
2018-Feb-24 16:00S 60°06' E 157°12'1313.4 190 / 24981.8 1.4 2.2
2018-Feb-24 15:00S 60°18' E 157°24'8 8.4 190 / 21981.0 1.5 2.3
2018-Feb-24 14:00S 60°24' E 157°36'7 6.7 190 / 11980.6 2.4 2.4
2018-Feb-24 13:00S 60°30' E 157°42'8 8.4 070 / 3980.7 2.8 2.3
2018-Feb-24 12:00S 60°36' E 157°54'1313.4 060 / 8981.4 2.6 2.2
2018-Feb-24 11:00S 60°48' E 158°06'7 6.7 050 / 9982.2 1.9 2.2
2018-Feb-24 10:00S 60°54' E 158°12'8 8.4 050 / 11983.1 1.5 2.2
2018-Feb-24 09:00S 61°00' E 158°24'8 8.4 050 / 11984.0 1.0 2.1
2018-Feb-24 08:00S 61°06' E 158°36'1212.3 030 / 9984.9 0.9 2.1
2018-Feb-24 07:00S 61°18' E 158°42'8 8.3 020 / 10985.7 0.8 2.0
2018-Feb-24 06:00S 61°24' E 158°54'8 8.3 020 / 12986.6 0.9 2.0
2018-Feb-24 05:00S 61°30' E 159°06'1212.3 360 / 13987.5 0.9 2.0
2018-Feb-24 04:00S 61°42' E 159°12'8 8.3 350 / 12988.4 0.8 1.9
2018-Feb-24 03:00S 61°48' E 159°24'8 8.2 340 / 15989.0 1.4 1.8
2018-Feb-24 02:00S 61°54' E 159°36'7 6.6 330 / 15989.5 1.9 1.7
2018-Feb-24 01:00S 62°00' E 159°42'1313.2
2018-Feb-24 00:00S 62°12' E 159°54'8 8.2
2018-Feb-23 23:00S 62°18' E 160°06'8 8.2 300 / 19990.2 1.7 1.6
2018-Feb-23 22:00S 62°24' E 160°18'7 6.6 300 / 19990.0 1.7 1.6
2018-Feb-23 21:00S 62°30' E 160°24'1313.2 290 / 20989.5 1.7 1.7
2018-Feb-23 20:00S 62°42' E 160°36'8 8.1 290 / 20989.1 1.7 1.6
2018-Feb-23 19:00S 62°48' E 160°48'7 6.6 290 / 19988.7 1.6 1.6
2018-Feb-23 18:00S 62°54' E 160°54'8 8.1 290 / 19988.4 1.4 1.6
2018-Feb-23 17:00S 63°00' E 161°06'8 8.1 300 / 19988.2 1.2 1.6
2018-Feb-23 16:00S 63°06' E 161°18'1313.2 340 / 16988.4 0.2 1.3
2018-Feb-23 15:00S 63°18' E 161°30'7 6.6 340 / 9988.7 -0.3 1.0
2018-Feb-23 14:00S 63°24' E 161°36'8 8.0 280 / 13988.7 -0.2 0.9
2018-Feb-23 13:00S 63°30' E 161°48'8 8.0 270 / 13988.4 -0.5 0.8
2018-Feb-23 12:00S 63°36' E 162°00'1313.1 290 / 16987.9 -1.0 0.9
2018-Feb-23 11:00S 63°48' E 162°12'7 6.6 020 / 17987.7 -1.2 0.9
2018-Feb-23 10:00S 63°54' E 162°18'8 8.0 010 / 15987.8 -0.8 0.7
2018-Feb-23 09:00S 64°00' E 162°30'8 8.0 020 / 13987.7 -0.7 0.6
2018-Feb-23 08:00S 64°06' E 162°42'1313.1 020 / 10987.7 -0.9 0.6
2018-Feb-23 07:00S 64°18' E 162°54'8 7.9 050 / 7987.7 -1.3 0.6
2018-Feb-23 06:00S 64°24' E 163°06'8 7.9 070 / 5987.5 -1.5 0.6
2018-Feb-23 05:00S 64°30' E 163°18'8 7.9 110 / 2987.3 -1.3 0.5
2018-Feb-23 04:00S 64°36' E 163°30'1313.0 120 / 3987.2 -1.0 0.6
2018-Feb-23 03:00S 64°48' E 163°42'7 6.5 160 / 3986.8 -0.8 0.5
2018-Feb-23 02:00S 64°54' E 163°48'8 7.9 160 / 5986.4 -1.3 0.3
2018-Feb-23 01:00S 65°00' E 164°00'8 7.9 180 / 6986.2 -1.9 0.3
2018-Feb-23 00:00S 65°06' E 164°12'1313.0 210 / 4985.8 -1.8 0.3
2018-Feb-22 23:00S 65°18' E 164°24'8 7.8 120 / 8985.5 -2.0 0.3
2018-Feb-22 22:00S 65°24' E 164°36'8 7.8 110 / 9985.1 -1.9 0.3
2018-Feb-22 21:00S 65°30' E 164°48'8 7.8 140 / 11984.6 -1.8 0.3
2018-Feb-22 20:00S 65°36' E 165°00'1313.0 140 / 12984.2 -2.7 0.3
2018-Feb-22 19:00S 65°48' E 165°12'8 7.8 130 / 15983.6 -2.3 0.3
2018-Feb-22 18:00S 65°54' E 165°24'6 6.5 150 / 13983.2 -1.8 0.3
2018-Feb-22 17:00S 66°00' E 165°30'37 9.3 140 / 12983.0 -2.5 0.3
2018-Feb-22 13:00S 66°30' E 166°24'8 7.7 140 / 13982.5 -3.0 0.2
2018-Feb-22 12:00S 66°36' E 166°36'1312.9 110 / 13982.6 -3.5 -0.0
2018-Feb-22 11:00S 66°48' E 166°48'8 7.6 120 / 14982.4 -3.1 -0.0
2018-Feb-22 10:00S 66°54' E 167°00'8 7.6 120 / 13982.3 -3.3 -0.0
2018-Feb-22 09:00S 67°00' E 167°12'8 7.6 130 / 14982.2 -3.2 -0.0
2018-Feb-22 08:00S 67°06' E 167°24'8 7.6 120 / 14982.1 -3.3 -0.0
2018-Feb-22 07:00S 67°12' E 167°36'9 9.2 110 / 13982.0 -2.4 -0.3
2018-Feb-22 06:00S 67°18' E 167°54'1212.0 110 / 13981.7 -2.8 -0.2
2018-Feb-22 05:00S 67°30' E 167°54'8 7.5 110 / 12981.9 -2.8 -0.3
2018-Feb-22 04:00S 67°36' E 168°06'8 7.5 110 / 13982.1 -2.8 -0.3
2018-Feb-22 03:00S 67°42' E 168°18'8 7.5 120 / 12982.3 -2.7 -0.4
2018-Feb-22 02:00S 67°48' E 168°30'1413.8 120 / 11982.6 -2.8 -0.5
2018-Feb-22 01:00S 68°00' E 168°48'7 7.5 120 / 11982.9 -2.9 -0.6
2018-Feb-22 00:00S 68°06' E 169°00'7 7.5 120 / 11983.0 -3.1 -0.7
2018-Feb-21 23:00S 68°12' E 169°12'1312.8 120 / 11983.0 -3.1 -0.7
2018-Feb-21 22:00S 68°24' E 169°24'7 7.4 120 / 10983.1 -3.2 -0.6
2018-Feb-21 21:00S 68°30' E 169°36'9 8.9 130 / 11983.2 -3.3 -0.6
2018-Feb-21 20:00S 68°36' E 169°54'7 7.4 120 / 10983.3 -3.3 -0.8
2018-Feb-21 19:00S 68°42' E 170°06'1312.8 120 / 9983.3 -3.5 -0.8
2018-Feb-21 18:00S 68°54' E 170°18'7 7.4 130 / 10983.4 -3.8 -0.9
2018-Feb-21 17:00S 69°00' E 170°30'7 7.4 130 / 11983.5 -3.9 -0.8
2018-Feb-21 16:00S 69°06' E 170°42'9 8.8 130 / 13983.7 -3.9 -0.7
2018-Feb-21 15:00S 69°12' E 171°00'1312.7 140 / 14984.1 -3.8 -0.6
2018-Feb-21 14:00S 69°24' E 171°12'7 7.3 140 / 13984.4 -3.4 -0.7
2018-Feb-21 13:00S 69°30' E 171°24'9 8.7 150 / 15984.8 -2.9 -0.9
2018-Feb-21 12:00S 69°36' E 171°42'7 7.3 150 / 17985.0 -3.6 -0.9
2018-Feb-21 11:00S 69°42' E 171°54'1312.7 160 / 19985.2 -2.6 -0.9
2018-Feb-21 10:00S 69°54' E 172°06'9 8.6 170 / 20985.3 -2.5 -0.9
2018-Feb-21 09:00S 70°00' E 172°24'7 7.3 170 / 22985.3 -2.2 -0.9
2018-Feb-21 08:00S 70°06' E 172°36'7 7.3 170 / 23985.2 -2.1 -0.9
2018-Feb-21 07:00S 70°12' E 172°48'1313.4 170 / 24985.2 -2.1 -0.9
2018-Feb-21 06:00S 70°24' E 173°06'7 7.2 180 / 26985.1 -3.2 -0.9
2018-Feb-21 05:00S 70°30' E 173°18'7 7.2 180 / 28985.1 -3.6 -0.9
2018-Feb-21 04:00S 70°36' E 173°30'8 8.5 170 / 25984.9 -3.9 -0.9
2018-Feb-21 03:00S 70°42' E 173°48'1312.6 190 / 26985.0 -4.5 -0.9
2018-Feb-21 02:00S 70°54' E 174°00'7 7.2 190 / 28985.1 -3.5 -0.9
2018-Feb-21 01:00S 71°00' E 174°12'6 6.3 180 / 30985.1 -4.0 -1.0
2018-Feb-21 00:00S 71°06' E 174°06'6 6.0 170 / 32985.0 -4.6 -1.0
2018-Feb-20 23:00S 71°12' E 174°06'275 5.3 170 / 30985.4 -5.2 -0.9
2018-Feb-18 19:00S 74°48' E 164°24'0 0.0 260 / 22997.6 -9.3 -1.5
2018-Feb-18 18:00S 74°48' E 164°24'6 6.2 250 / 24997.7 -9.2 -1.5
2018-Feb-18 17:00S 74°42' E 164°30'2 1.6 260 / 21997.6 -8.4 -1.5
2018-Feb-18 16:00S 74°42' E 164°36'2 1.6 240 / 19997.7 -7.7 -1.5
2018-Feb-18 15:00S 74°42' E 164°30'2 1.6 240 / 17998.0 -7.4 -1.5
2018-Feb-18 14:00S 74°42' E 164°24'6 6.2 240 / 16998.2 -7.3 -1.4
2018-Feb-18 13:00S 74°48' E 164°30'6 6.3 240 / 17998.2 -7.4 -1.4
2018-Feb-18 12:00S 74°48' E 164°54'6 6.2 240 / 15998.4 -6.9 -1.5
2018-Feb-18 11:00S 74°42' E 165°00'3 3.2 250 / 11998.7 -6.9 -1.5
2018-Feb-18 10:00S 74°42' E 164°48'3 3.2 250 / 13998.6 -6.9 -1.5
2018-Feb-18 09:00S 74°42' E 164°36'5 4.7 250 / 17998.7 -6.9 -1.4
2018-Feb-18 08:00S 74°42' E 164°18'0 0.0 240 / 18998.8 -6.6 -1.2
2018-Feb-18 07:00S 74°42' E 164°18'0 0.0 250 / 20998.7 -6.8 -1.2
2018-Feb-18 06:00S 74°42' E 164°18'2 1.6 260 / 23998.7 -7.0 -1.2
2018-Feb-18 05:00S 74°42' E 164°24'2 1.6 250 / 25998.6 -7.2 -1.2
2018-Feb-18 04:00S 74°42' E 164°18'0 0.0 250 / 28998.3 -7.7 -1.2
2018-Feb-18 03:00S 74°42' E 164°18'2 1.6 250 / 30998.3 -7.7 -1.1
2018-Feb-18 02:00S 74°42' E 164°24'8 7.7 240 / 23997.8 -7.5 -1.2
2018-Feb-18 01:00S 74°36' E 164°42'0 0.0 220 / 16997.6 -7.2 -1.4
2018-Feb-18 00:00S 74°36' E 164°42'0 0.0 220 / 14997.4 -7.3 -1.4
2018-Feb-17 23:00S 74°36' E 164°42'0 0.0 210 / 10997.1 -7.3 -1.4
2018-Feb-17 22:00S 74°36' E 164°42'0 0.0 270 / 4996.8 -6.7 -1.4
2018-Feb-17 21:00S 74°36' E 164°42'0 0.0 320 / 4996.3 -7.4 -1.4
2018-Feb-17 20:00S 74°36' E 164°42'6 6.0 310 / 9995.6 -7.8 -1.5
2018-Feb-17 19:00S 74°42' E 164°42'2 1.6 250 / 17994.9 -7.9 -1.4
2018-Feb-17 18:00S 74°42' E 164°48'2 1.6 240 / 22994.5 -7.8 -1.4
2018-Feb-17 17:00S 74°42' E 164°54'5 4.7 240 / 16994.2 -6.7 -1.5
2018-Feb-17 16:00S 74°42' E 164°36'5 4.7 240 / 13993.6 -6.3 -1.4
2018-Feb-17 15:00S 74°42' E 164°18'6 6.0 260 / 14992.9 -6.2 -1.2
2018-Feb-17 14:00S 74°48' E 164°18'17 0.7 260 / 34992.2 -8.2 -1.2
2018-Feb-16 15:00S 74°42' E 165°18'3 3.2 200 / 5985.5 -6.1 -1.8
2018-Feb-16 14:00S 74°42' E 165°30'3 3.2 985.7 -6.3 -1.7
2018-Feb-16 13:00S 74°42' E 165°18'7 6.8 330 / 6985.8 -6.3 -1.6
2018-Feb-16 12:00S 74°48' E 165°06'3 3.1 350 / 11985.9 -6.3 -1.8
2018-Feb-16 11:00S 74°48' E 164°54'2 1.6 010 / 10985.8 -5.7 -1.4
2018-Feb-16 10:00S 74°48' E 164°48'0 0.0 010 / 15985.6 -5.5 -1.3
2018-Feb-16 09:00S 74°48' E 164°48'6 6.2 020 / 10985.8 -4.7 -1.3
2018-Feb-16 08:00S 74°42' E 164°42'2 1.6 020 / 14985.9 -6.2 -1.2
2018-Feb-16 07:00S 74°42' E 164°36'0 0.0 030 / 16985.7 -5.9 -1.2
2018-Feb-16 06:00S 74°42' E 164°36'5 4.7 030 / 14985.7 -5.6 -1.2
2018-Feb-16 05:00S 74°42' E 164°54'2 1.6 010 / 10985.8 -5.5 -1.4
2018-Feb-16 04:00S 74°42' E 165°00'5 4.7 020 / 13985.9 -5.3 -1.4
2018-Feb-16 03:00S 74°42' E 164°42'7 6.8 020 / 17986.1 -5.8 -1.3
2018-Feb-16 02:00S 74°48' E 164°30'0 0.0 030 / 13986.2 -4.8 -1.2
2018-Feb-16 01:00S 74°48' E 164°30'0 0.0 350 / 9986.5 -4.5 -1.3
2018-Feb-16 00:00S 74°48' E 164°30'3 3.1 270 / 26986.4 -4.1 -1.3
2018-Feb-15 23:00S 74°48' E 164°18'6 6.2 280 / 28986.0 -4.3 -1.4
2018-Feb-15 22:00S 74°54' E 164°12'6 6.0 270 / 43985.4 -7.4 -1.8
2018-Feb-15 21:00S 75°00' E 164°12'3 3.1 270 / 37987.5 -8.6 -1.8
2018-Feb-15 20:00S 75°00' E 164°24'3 3.1 270 / 41987.0 -8.5 -1.8
2018-Feb-15 19:00S 75°00' E 164°36'2 1.6 260 / 41987.0 -8.8 -1.8
2018-Feb-15 18:00S 75°00' E 164°42'5 4.7 260 / 41986.5 -8.9 -1.8
2018-Feb-15 17:00S 75°00' E 164°24'2 1.6 260 / 47986.0 -9.0 -1.8
2018-Feb-15 16:00S 75°00' E 164°30'3 3.1 250 / 44986.6 -9.0 -1.8
2018-Feb-15 15:00S 75°00' E 164°18'5 4.7 270 / 41986.2 -8.9 -1.8
2018-Feb-15 14:00S 75°00' E 164°00'2 1.6 270 / 34986.2 -8.7 -1.8
2018-Feb-15 13:00S 75°00' E 163°54'2 1.6 260 / 29986.0 -7.7 -1.8
2018-Feb-15 12:00S 75°00' E 164°00'2 1.6 260 / 32985.0 -6.8 -1.8
2018-Feb-15 11:00S 75°00' E 164°06'2 1.6 270 / 32983.6 -5.7 -1.8
2018-Feb-15 10:00S 75°00' E 164°12'3 3.1 270 / 25983.4 -4.5 -1.8
2018-Feb-15 09:00S 75°00' E 164°24'2 1.6 260 / 22982.7 -3.5 -1.8
2018-Feb-15 08:00S 75°00' E 164°30'6 6.2 250 / 28981.8 -2.6 -1.8
2018-Feb-15 07:00S 74°54' E 164°24'   260 / 31981.2 -2.1 -1.5

Dump ship's entire track history